Andover, South Dakota
Current Conditions -  °F | °C
As of 11:53 AM on Thursday 30 Oct 2014 (Local Time) from KABR Reporting Station
Overcast Overcast  
Wind Chill: 30°   Ceiling: 1300
Heat Index: 40°   Visibility: 10mi
Dew Point: 33°   Wind: 23mph
Humidity: 77%   Direction: 360°N
Pressure: 30.25"   Gusts: 30mph
Location:  45.41°N, 97.9°W
Report Text: KABR 301653Z AUTO 36020G26KT 10SM OVC013 04/01 A3025 RMK AO2 PK WND 36027/1556 SLP253 T00440006
Loading
Personal Weather Stations






























Interactive Weather Map
Tropical Storm Tracking
New forecast layout! Learn more

10-Day Weather Forecast

Advertisements
Track Severe Weather on mobile